Time;durP1;ratioP1;P1;durP2;ratioP2;P2;SDS_P1;SDS_P2;PMS_P1;PMS_P2;Temp;Humidity;BMP_temperature;BMP_pressure;BME280_temperature;BME280_humidity;BME280_pressure;Samples;Min_cycle;Max_cycle;Signal;HPM_P1;HPM_P2
2023/01/16 00:01:14;;;;;;;3.35;1.50;;;;;;;3.97;100.00;99550.94;5030833;28;20075;-74
2023/01/16 00:03:39;;;;;;;2.22;1.77;;;;;;;3.94;100.00;99546.84;5030818;28;20060;-74
2023/01/16 00:06:06;;;;;;;1.13;1.10;;;;;;;3.91;100.00;99539.28;5030745;28;20067;-74
2023/01/16 00:08:32;;;;;;;3.70;1.50;;;;;;;3.88;100.00;99529.13;5030558;28;20117;-74
2023/01/16 00:10:58;;;;;;;5.63;1.30;;;;;;;3.81;100.00;99516.88;5012661;28;20039;-74
2023/01/16 00:13:23;;;;;;;1.33;1.23;;;;;;;3.81;100.00;99520.31;5030418;28;20033;-74
2023/01/16 00:15:50;;;;;;;2.38;1.42;;;;;;;3.63;100.00;99504.06;5029907;28;20036;-74
2023/01/16 00:18:16;;;;;;;3.40;1.13;;;;;;;3.67;100.00;99500.09;5030493;28;20083;-75
2023/01/16 00:20:42;;;;;;;4.30;1.25;;;;;;;3.65;100.00;99505.53;5029989;28;20132;-74
2023/01/16 00:23:08;;;;;;;1.60;1.25;;;;;;;3.65;100.00;99510.00;5030118;28;20108;-74
2023/01/16 00:25:35;;;;;;;1.65;1.50;;;;;;;3.65;100.00;99500.25;5012669;28;20131;-74
2023/01/16 00:28:00;;;;;;;3.65;1.33;;;;;;;3.65;100.00;99499.44;5030061;28;20045;-74
2023/01/16 00:30:25;;;;;;;2.53;1.30;;;;;;;3.61;100.00;99498.97;5030284;28;20044;-74
2023/01/16 00:32:51;;;;;;;2.13;1.25;;;;;;;3.57;100.00;99497.72;5030286;28;20033;-74
2023/01/16 00:35:16;;;;;;;4.63;2.03;;;;;;;3.45;100.00;99486.00;5012220;28;20061;-74
2023/01/16 00:37:41;;;;;;;2.70;1.40;;;;;;;3.52;100.00;99497.47;5029785;28;20377;-74
2023/01/16 00:40:08;;;;;;;3.67;1.73;;;;;;;3.46;100.00;99490.31;5029569;28;20031;-74
2023/01/16 00:42:33;;;;;;;4.50;1.45;;;;;;;3.42;100.00;99492.47;5029835;28;20041;-74
2023/01/16 00:44:58;;;;;;;2.75;1.83;;;;;;;3.40;100.00;99485.75;5011759;28;20048;-74
2023/01/16 00:47:24;;;;;;;3.50;2.00;;;;;;;3.31;100.00;99481.59;5030071;28;20436;-74
2023/01/16 00:49:49;;;;;;;4.97;1.83;;;;;;;3.31;100.00;99495.56;5012328;28;20029;-74
2023/01/16 00:52:14;;;;;;;2.50;2.00;;;;;;;3.29;100.00;99479.13;5029962;28;20029;-74
2023/01/16 00:54:40;;;;;;;2.05;1.60;;;;;;;3.27;100.00;99474.06;5030119;28;20041;-80
2023/01/16 00:57:05;;;;;;;4.68;1.73;;;;;;;3.22;100.00;99471.16;5012626;28;20064;-79
2023/01/16 00:59:30;;;;;;;7.30;2.20;;;;;;;3.24;100.00;99470.94;5029981;28;20432;-79
2023/01/16 01:01:56;;;;;;;2.22;1.60;;;;;;;3.22;100.00;99468.53;5030098;28;20099;-79
2023/01/16 01:04:21;;;;;;;5.55;2.10;;;;;;;3.17;100.00;99459.50;5029841;28;20076;-79
2023/01/16 01:06:46;;;;;;;6.45;1.98;;;;;;;3.11;100.00;99455.78;5012120;28;20080;-79
2023/01/16 01:09:12;;;;;;;5.38;1.58;;;;;;;3.10;100.00;99448.09;5029556;28;20041;-79
2023/01/16 01:11:37;;;;;;;3.75;1.50;;;;;;;3.02;100.00;99449.00;5029730;28;20076;-79
2023/01/16 01:14:03;;;;;;;4.63;2.15;;;;;;;3.03;100.00;99451.44;5029809;28;20033;-79
2023/01/16 01:16:28;;;;;;;5.45;2.08;;;;;;;2.96;100.00;99449.72;5029837;28;20036;-79
2023/01/16 01:18:54;;;;;;;2.58;1.90;;;;;;;2.94;100.00;99439.38;5029701;28;20054;-79
2023/01/16 01:21:19;;;;;;;3.83;1.90;;;;;;;2.93;100.00;99440.34;4995668;28;20033;-79
2023/01/16 01:23:45;;;;;;;8.45;1.83;;;;;;;2.93;100.00;99436.91;5012118;28;20477;-79
2023/01/16 01:26:15;;;;;;;6.65;1.80;;;;;;;2.80;100.00;99419.94;5029707;28;20059;-80
2023/01/16 01:28:41;;;;;;;2.25;1.58;;;;;;;2.89;100.00;99430.38;5029366;28;20391;-79
2023/01/16 01:31:10;;;;;;;4.93;2.42;;;;;;;2.85;100.00;99424.66;5029509;28;20040;-79
2023/01/16 01:33:36;;;;;;;7.05;2.03;;;;;;;2.84;100.00;99420.41;5033132;28;20091;-79
2023/01/16 01:36:02;;;;;;;1.98;1.30;;;;;;;2.80;100.00;99413.84;5033727;28;20029;-79
2023/01/16 01:38:28;;;;;;;3.13;1.33;;;;;;;2.78;100.00;99400.88;5033773;28;20106;-79
2023/01/16 01:40:53;;;;;;;6.68;1.60;;;;;;;2.77;100.00;99395.78;5033659;28;20065;-79
2023/01/16 01:43:19;;;;;;;1.88;1.15;;;;;;;2.72;100.00;99390.25;5033853;28;20459;-79
2023/01/16 01:45:55;;;;;;;5.65;1.58;;;;;;;2.65;100.00;99377.00;5033271;28;20033;-79
2023/01/16 01:48:30;;;;;;;5.07;1.85;;;;;;;2.55;100.00;99358.03;5015715;28;20461;-79
2023/01/16 01:51:03;;;;;;;4.95;2.28;;;;;;;2.59;100.00;99369.81;5033510;28;20030;-79
2023/01/16 01:53:58;;;;;;;2.25;1.67;;;;;;;2.57;100.00;99359.50;5033505;28;20033;-79
2023/01/16 01:56:39;;;;;;;3.38;1.45;;;;;;;2.58;100.00;99362.94;5033622;28;20021;-79
2023/01/16 01:59:14;;;;;;;3.05;1.52;;;;;;;2.52;100.00;99347.88;5033440;28;20028;-79
2023/01/16 02:01:40;;;;;;;5.68;2.03;;;;;;;2.52;100.00;99353.97;5033090;28;20461;-79
2023/01/16 02:04:13;;;;;;;4.10;1.77;;;;;;;2.43;100.00;99328.72;5015587;28;20026;-79
2023/01/16 02:06:44;;;;;;;3.00;1.85;;;;;;;2.44;100.00;99327.72;5015237;28;20029;-79
2023/01/16 02:09:10;;;;;;;12.10;2.50;;;;;;;2.44;100.00;99335.63;5033253;28;20392;-79
2023/01/16 02:11:48;;;;;;;2.40;1.42;;;;;;;2.40;100.00;99329.09;5032943;28;20499;-79
2023/01/16 02:14:17;;;;;;;7.82;2.35;;;;;;;2.37;100.00;99321.56;5032814;28;20029;-79
2023/01/16 02:19:46;;;;;;;5.93;2.38;;;;;;;2.39;100.00;99316.94;5032478;28;20060;-79
2023/01/16 02:22:34;;;;;;;6.47;2.63;;;;;;;2.37;100.00;99311.03;5032384;28;20032;-79
2023/01/16 02:25:25;;;;;;;2.05;1.40;;;;;;;2.34;100.00;99300.88;5014656;28;20025;-79
2023/01/16 02:28:10;;;;;;;7.50;2.40;;;;;;;2.32;100.00;99293.16;5014761;28;20040;-79
2023/01/16 02:31:08;;;;;;;3.25;1.65;;;;;;;2.31;100.00;99280.19;5032293;28;20021;-79
2023/01/16 02:34:06;;;;;;;7.18;3.75;;;;;;;2.29;100.00;99280.38;5032223;28;20037;-79
2023/01/16 02:37:01;;;;;;;8.48;2.85;;;;;;;2.24;100.00;99269.59;5014110;28;20575;-79
2023/01/16 02:39:41;;;;;;;6.47;3.53;;;;;;;2.26;100.00;99262.34;5032021;28;20557;-79
2023/01/16 02:42:07;;;;;;;3.65;1.95;;;;;;;2.25;100.00;99258.03;5031776;28;20295;-79
2023/01/16 02:44:51;;;;;;;6.35;2.25;;;;;;;2.24;100.00;99247.72;5032052;28;20632;-79
2023/01/16 02:47:31;;;;;;;3.25;1.38;;;;;;;2.22;100.00;99239.19;5031085;28;20026;-79
2023/01/16 02:50:18;;;;;;;3.78;1.90;;;;;;;2.20;100.00;99228.84;5032384;28;20029;-79
2023/01/16 02:53:00;;;;;;;3.78;2.10;;;;;;;2.20;100.00;99228.84;5014430;28;20469;-80
2023/01/16 02:55:37;;;;;;;6.85;1.42;;;;;;;2.16;100.00;99206.56;5032488;28;20417;-79
2023/01/16 02:58:06;;;;;;;5.78;1.67;;;;;;;2.19;100.00;99204.38;5032252;28;20030;-79
2023/01/16 03:00:34;;;;;;;4.82;1.35;;;;;;;2.14;100.00;99184.88;5032218;28;20029;-79
2023/01/16 03:02:59;;;;;;;6.90;2.65;;;;;;;2.15;100.00;99181.28;5032267;28;20018;-79
2023/01/16 03:05:31;;;;;;;6.20;1.58;;;;;;;2.07;100.00;99163.78;5032177;28;20021;-80
2023/01/16 03:08:12;;;;;;;5.68;1.42;;;;;;;2.17;100.00;99174.00;5015258;28;20477;-79
2023/01/16 03:11:01;;;;;;;3.72;1.85;;;;;;;2.13;100.00;99170.91;5031847;28;20048;-79
2023/01/16 03:13:37;;;;;;;8.07;1.77;;;;;;;2.13;100.00;99170.13;5031863;28;20404;-79
2023/01/16 03:16:28;;;;;;;4.05;1.35;;;;;;;2.11;100.00;99154.50;5030962;28;20029;-79
2023/01/16 03:19:11;;;;;;;5.55;1.95;;;;;;;2.09;100.00;99148.59;5031628;28;20049;-79
2023/01/16 03:21:54;;;;;;;8.93;1.98;;;;;;;2.11;100.00;99149.25;5031725;28;20017;-79
2023/01/16 03:24:20;;;;;;;5.63;1.88;;;;;;;2.11;100.00;99133.47;5031629;28;20388;-79
2023/01/16 03:26:49;;;;;;;6.13;2.05;;;;;;;2.11;100.00;99119.50;5013974;28;20025;-80
2023/01/16 03:29:29;;;;;;;5.97;1.85;;;;;;;2.11;100.00;99112.44;5031773;28;20114;-79
2023/01/16 03:32:16;;;;;;;4.18;1.70;;;;;;;2.14;100.00;99116.50;5031645;28;20029;-80
2023/01/16 03:35:02;;;;;;;5.43;1.90;;;;;;;2.11;100.00;99106.38;5031285;28;20076;-79
2023/01/16 03:37:51;;;;;;;5.55;1.83;;;;;;;2.12;100.00;99106.19;5030982;28;20087;-79
2023/01/16 03:40:27;;;;;;;3.17;1.80;;;;;;;2.15;100.00;99102.38;5030891;28;20428;-79
2023/01/16 03:43:02;;;;;;;6.60;1.77;;;;;;;2.14;100.00;99093.66;5032068;28;20380;-79
2023/01/16 03:45:44;;;;;;;6.45;1.67;;;;;;;2.14;100.00;99072.59;5031723;28;20138;-79
2023/01/16 03:48:18;;;;;;;5.78;1.85;;;;;;;2.13;100.00;99065.72;5013455;28;20384;-79
2023/01/16 03:50:56;;;;;;;4.80;1.80;;;;;;;2.16;100.00;99067.19;5031382;28;20041;-79
2023/01/16 03:53:27;;;;;;;2.60;1.92;;;;;;;2.12;100.00;99053.59;5031444;28;20566;-80
2023/01/16 03:56:13;;;;;;;2.10;1.67;;;;;;;2.13;100.00;99049.16;5030710;28;20110;-79
2023/01/16 03:58:42;;;;;;;6.53;1.70;;;;;;;2.16;100.00;99038.25;5031331;28;20389;-80
2023/01/16 04:01:14;;;;;;;6.43;1.98;;;;;;;2.19;100.00;99038.69;5031258;28;20104;-79
2023/01/16 04:03:47;;;;;;;2.05;1.50;;;;;;;2.19;100.00;99024.72;5029640;28;20488;-79
2023/01/16 04:06:16;;;;;;;4.53;1.83;;;;;;;2.19;100.00;99014.19;5031058;28;20021;-79
2023/01/16 04:08:44;;;;;;;5.13;2.10;;;;;;;2.18;100.00;99005.50;5031128;28;20026;-79
2023/01/16 04:11:14;;;;;;;7.47;1.70;;;;;;;2.21;100.00;98995.63;5030837;28;20033;-79
2023/01/16 04:13:42;;;;;;;5.00;1.52;;;;;;;2.22;100.00;98989.34;5030959;28;20048;-79
2023/01/16 04:16:13;;;;;;;10.52;2.50;;;;;;;2.23;100.00;98983.91;5030834;28;20485;-80
2023/01/16 04:18:40;;;;;;;5.13;2.28;;;;;;;2.24;100.00;98975.00;5030510;28;20029;-79
2023/01/16 04:21:06;;;;;;;3.53;1.60;;;;;;;2.25;100.00;98966.09;5030815;28;20029;-79
2023/01/16 04:23:32;;;;;;;4.60;1.83;;;;;;;2.26;100.00;98961.69;5030485;28;20392;-79
2023/01/16 04:25:58;;;;;;;8.48;1.85;;;;;;;2.24;100.00;98955.78;5030613;28;20029;-79
2023/01/16 04:28:23;;;;;;;4.60;2.10;;;;;;;2.32;100.00;98953.81;5030621;28;20040;-79
2023/01/16 04:30:49;;;;;;;12.45;2.90;;;;;;;2.39;100.00;98930.22;5030210;28;20026;-78
2023/01/16 04:33:14;;;;;;;7.90;2.50;;;;;;;2.32;100.00;98908.31;5030532;28;20626;-80
2023/01/16 04:35:39;;;;;;;9.35;4.47;;;;;;;2.46;100.00;98912.63;5013294;28;20473;-79
2023/01/16 04:38:05;;;;;;;7.95;2.08;;;;;;;2.51;100.00;98910.25;5012885;28;20098;-79
2023/01/16 04:40:30;;;;;;;6.07;1.70;;;;;;;2.55;100.00;98892.28;5030383;28;20194;-79
2023/01/16 04:42:55;;;;;;;8.32;2.28;;;;;;;2.59;100.00;98896.13;5012257;28;20048;-79
2023/01/16 04:45:22;;;;;;;6.68;2.10;;;;;;;2.61;100.00;98878.34;5030575;28;20037;-79
2023/01/16 04:47:48;;;;;;;3.60;1.73;;;;;;;2.62;100.00;98872.88;5030277;28;20037;-79
2023/01/16 04:50:14;;;;;;;6.28;1.90;;;;;;;2.64;100.00;98857.69;5030337;28;20039;-79
2023/01/16 04:52:41;;;;;;;8.85;2.03;;;;;;;2.72;100.00;98861.19;5030276;28;20388;-80
2023/01/16 04:55:07;;;;;;;16.13;3.15;;;;;;;2.73;100.00;98847.03;5030340;28;20047;-79
2023/01/16 04:57:32;;;;;;;3.50;1.88;;;;;;;2.74;100.00;98828.38;5030169;28;20021;-79
2023/01/16 04:59:58;;;;;;;3.70;1.77;;;;;;;2.81;100.00;98823.97;5030311;28;20507;-79
2023/01/16 05:02:23;;;;;;;2.40;1.38;;;;;;;2.85;100.00;98819.13;5030311;28;20461;-79
2023/01/16 05:04:49;;;;;;;2.63;1.83;;;;;;;2.86;100.00;98807.59;5030409;28;20038;-79
2023/01/16 05:07:14;;;;;;;4.78;1.83;;;;;;;2.85;100.00;98803.31;5012480;28;20477;-79
2023/01/16 05:09:39;;;;;;;3.63;2.22;;;;;;;2.90;100.00;98786.94;5029865;28;20030;-80
2023/01/16 05:12:05;;;;;;;8.50;2.22;;;;;;;2.94;100.00;98789.00;4995872;28;20048;-80
2023/01/16 05:14:30;;;;;;;7.35;1.85;;;;;;;2.93;100.00;98768.91;5029908;28;20381;-79
2023/01/16 05:16:55;;;;;;;6.97;1.52;;;;;;;2.94;100.00;98765.28;5029810;28;20053;-80
2023/01/16 05:19:21;;;;;;;5.35;2.40;;;;;;;2.99;100.00;98768.13;5012105;28;20481;-80
2023/01/16 05:21:46;;;;;;;5.85;1.85;;;;;;;3.01;100.00;98749.50;5029815;28;20064;-80
2023/01/16 05:24:12;;;;;;;3.97;2.20;;;;;;;3.04;100.00;98747.28;5029485;28;20033;-80
2023/01/16 05:26:37;;;;;;;6.55;2.30;;;;;;;3.05;100.00;98740.19;5029650;28;20481;-79
2023/01/16 05:29:02;;;;;;;3.80;1.50;;;;;;;3.05;100.00;98730.47;5029821;28;20041;-79
2023/01/16 05:31:28;;;;;;;3.22;1.67;;;;;;;3.10;100.00;98727.25;5029245;28;20068;-80
2023/01/16 05:33:53;;;;;;;7.53;2.83;;;;;;;3.07;100.00;98717.91;5029818;28;20029;-79
2023/01/16 05:36:18;;;;;;;6.72;1.92;;;;;;;3.12;100.00;98706.78;5029662;28;20487;-80
2023/01/16 05:38:44;;;;;;;3.58;1.58;;;;;;;3.10;100.00;98689.56;5029772;28;20152;-79
2023/01/16 05:41:09;;;;;;;7.38;1.50;;;;;;;3.19;100.00;98690.97;5029574;28;20028;-79
2023/01/16 05:43:35;;;;;;;5.85;2.20;;;;;;;3.20;100.00;98685.50;5029813;28;20091;-80
2023/01/16 05:46:00;;;;;;;3.80;1.30;;;;;;;3.23;100.00;98674.56;5011990;28;20576;-79
2023/01/16 05:48:25;;;;;;;5.20;1.63;;;;;;;3.21;100.00;98660.78;5029891;28;20033;-80
2023/01/16 05:50:51;;;;;;;8.00;2.65;;;;;;;3.26;100.00;98652.28;5029651;28;20034;-79
2023/01/16 05:53:16;;;;;;;1.70;1.30;;;;;;;3.24;100.00;98641.13;5029826;28;20033;-79
2023/01/16 05:55:44;;;;;;;7.63;1.80;;;;;;;3.26;100.00;98642.53;5029586;28;20571;-80
2023/01/16 05:58:11;;;;;;;6.85;1.30;;;;;;;3.23;100.00;98624.53;5029686;28;20112;-80
2023/01/16 06:00:38;;;;;;;2.63;1.20;;;;;;;3.25;100.00;98609.34;5029641;28;20456;-79
2023/01/16 06:03:03;;;;;;;3.97;1.67;;;;;;;3.31;100.00;98609.53;5029618;28;20037;-80
2023/01/16 06:05:29;;;;;;;2.47;1.00;;;;;;;3.33;100.00;98596.94;5012008;28;20098;-79
2023/01/16 06:07:56;;;;;;;4.68;1.35;;;;;;;3.34;100.00;98588.03;5029476;28;20091;-80
2023/01/16 06:10:21;;;;;;;5.88;1.33;;;;;;;3.35;100.00;98582.53;5029465;28;20025;-80
2023/01/16 06:12:47;;;;;;;4.55;1.90;;;;;;;3.38;100.00;98583.97;5029138;28;20060;-80
2023/01/16 06:15:12;;;;;;;1.08;0.98;;;;;;;3.41;100.00;98580.94;5011358;28;20045;-79
2023/01/16 06:17:37;;;;;;;3.83;1.70;;;;;;;3.45;100.00;98582.13;5011815;28;20052;-79
2023/01/16 06:20:03;;;;;;;2.25;1.25;;;;;;;3.46;100.00;98578.50;5032765;28;20460;-80
2023/01/16 06:22:28;;;;;;;1.67;1.20;;;;;;;3.48;100.00;98579.91;5032095;28;20041;-80
2023/01/16 06:24:54;;;;;;;2.25;1.20;;;;;;;3.47;100.00;98574.84;5032476;28;20029;-80
2023/01/16 06:27:19;;;;;;;3.95;1.42;;;;;;;3.50;100.00;98575.22;5032751;28;20037;-79
2023/01/16 06:29:44;;;;;;;3.28;1.55;;;;;;;3.51;100.00;98568.13;5032821;28;20068;-79
2023/01/16 06:32:10;;;;;;;3.00;1.05;;;;;;;3.49;100.00;98567.53;5032474;28;20029;-79
2023/01/16 06:34:35;;;;;;;5.05;1.15;;;;;;;3.44;100.00;98562.88;5032805;28;20644;-79
2023/01/16 06:37:00;;;;;;;2.25;0.82;;;;;;;3.39;100.00;98543.44;5015154;28;20036;-79
2023/01/16 06:39:26;;;;;;;3.97;2.47;;;;;;;3.29;100.00;98538.59;5032694;28;20477;-79
2023/01/16 06:41:51;;;;;;;3.25;1.25;;;;;;;3.34;100.00;98540.63;5032596;28;20492;-79
2023/01/16 06:44:16;;;;;;;2.85;1.33;;;;;;;3.35;100.00;98531.69;5032468;28;20114;-79
2023/01/16 06:46:42;;;;;;;3.40;1.33;;;;;;;3.36;100.00;98528.84;5032640;28;20040;-80
2023/01/16 06:49:09;;;;;;;6.18;1.27;;;;;;;3.34;100.00;98517.72;5014551;28;20038;-79
2023/01/16 06:51:34;;;;;;;1.17;0.95;;;;;;;3.36;100.00;98506.97;5032379;28;20025;-79
2023/01/16 06:54:02;;;;;;;2.85;1.17;;;;;;;3.31;100.00;98491.78;5032183;28;20374;-79
2023/01/16 06:56:28;;;;;;;3.42;0.80;;;;;;;3.29;100.00;98480.66;5032227;28;20026;-79
2023/01/16 06:58:53;;;;;;;3.35;1.13;;;;;;;3.33;100.00;98483.66;5032004;28;20021;-79
2023/01/16 07:01:19;;;;;;;4.72;1.10;;;;;;;3.29;100.00;98472.75;4998242;28;20026;-79
2023/01/16 07:03:44;;;;;;;1.55;1.05;;;;;;;3.28;100.00;98456.13;4998130;28;20029;-80
2023/01/16 07:06:09;;;;;;;0.98;0.88;;;;;;;3.28;100.00;98440.31;5014587;28;20025;-79
2023/01/16 07:08:35;;;;;;;2.25;1.35;;;;;;;3.26;100.00;98425.75;5014519;28;20029;-79
2023/01/16 07:11:01;;;;;;;4.28;2.10;;;;;;;3.23;100.00;98418.28;5014157;28;20048;-79
2023/01/16 07:13:28;;;;;;;3.00;1.50;;;;;;;3.18;100.00;98391.75;4998160;28;20037;-80
2023/01/16 07:24:06;;;;;;;4.32;0.98;;;;;;;3.26;100.00;98359.91;5032102;28;20048;-80
2023/01/16 07:26:34;;;;;;;2.67;1.38;;;;;;;3.29;100.00;98347.09;5032159;28;20052;-80
2023/01/16 07:29:02;;;;;;;3.00;0.90;;;;;;;3.30;100.00;98350.53;5013757;28;20595;-80
2023/01/16 07:31:28;;;;;;;3.80;1.10;;;;;;;3.35;100.00;98337.53;5030976;28;20037;-79
2023/01/16 07:33:53;;;;;;;1.83;1.05;;;;;;;3.34;100.00;98333.31;5031717;28;20499;-80
2023/01/16 07:36:19;;;;;;;3.22;1.20;;;;;;;3.32;100.00;98330.06;5031522;28;20113;-79
2023/01/16 07:38:44;;;;;;;2.65;1.23;;;;;;;3.33;100.00;98323.78;5031711;28;20083;-80
2023/01/16 07:41:09;;;;;;;3.65;1.15;;;;;;;3.33;100.00;98308.00;5032145;28;20038;-81
2023/01/16 07:43:35;;;;;;;3.15;1.50;;;;;;;3.31;100.00;98312.66;5031844;28;20119;-81
2023/01/16 07:46:00;;;;;;;3.00;1.42;;;;;;;3.33;100.00;98310.63;5032024;28;20079;-83
2023/01/16 07:48:26;;;;;;;4.20;2.03;;;;;;;3.34;100.00;98304.31;5031406;28;20040;-80
2023/01/16 07:50:56;;;;;;;2.05;1.35;;;;;;;3.27;100.00;98279.84;5013503;28;20412;-80
2023/01/16 07:53:23;;;;;;;7.13;4.15;;;;;;;3.35;100.00;98290.13;5031292;28;20033;-81
2023/01/16 07:55:56;;;;;;;2.10;1.65;;;;;;;3.31;100.00;98280.25;5031234;28;20058;-80
2023/01/16 07:58:22;;;;;;;2.25;1.45;;;;;;;3.34;100.00;98272.72;5031381;28;20022;-80
2023/01/16 08:00:48;;;;;;;4.90;1.90;;;;;;;3.33;100.00;98270.28;5031237;28;20029;-81
2023/01/16 08:03:14;;;;;;;4.10;1.33;;;;;;;3.34;100.00;98262.19;5030574;28;20052;-80
2023/01/16 08:05:43;;;;;;;1.88;1.60;;;;;;;3.32;100.00;98247.59;5030991;28;20392;-81
2023/01/16 08:08:08;;;;;;;5.47;1.67;;;;;;;3.36;100.00;98248.81;5030217;28;20029;-80
2023/01/16 08:10:33;;;;;;;6.97;1.58;;;;;;;3.37;100.00;98239.88;5012720;28;20045;-79
2023/01/16 08:12:59;;;;;;;3.85;1.40;;;;;;;3.38;100.00;98234.41;5030626;28;20059;-80
2023/01/16 08:15:24;;;;;;;3.42;1.95;;;;;;;3.38;100.00;98229.13;5012678;28;20037;-80
2023/01/16 08:17:49;;;;;;;5.20;1.63;;;;;;;3.33;100.00;98210.53;5030528;28;20064;-80
2023/01/16 08:20:15;;;;;;;4.68;1.27;;;;;;;3.40;100.00;98207.81;5029962;28;20053;-79
2023/01/16 08:22:43;;;;;;;2.10;1.45;;;;;;;3.43;100.00;98207.38;5029980;28;20037;-79
2023/01/16 08:25:08;;;;;;;3.03;1.50;;;;;;;3.38;100.00;98179.06;5030280;28;20037;-79
2023/01/16 08:27:34;;;;;;;3.70;1.55;;;;;;;3.45;100.00;98185.06;5012508;28;20052;-79
2023/01/16 08:29:59;;;;;;;2.60;1.20;;;;;;;3.45;100.00;98176.38;5030193;28;20060;-79
2023/01/16 08:32:24;;;;;;;2.70;1.38;;;;;;;3.45;100.00;98163.19;5007296;28;20025;-78
2023/01/16 08:34:50;;;;;;;2.13;1.30;;;;;;;3.50;100.00;98161.50;4990615;28;20196;-76
2023/01/16 08:37:15;;;;;;;2.45;1.63;;;;;;;3.48;100.00;98145.13;5027364;28;20098;-82
2023/01/16 08:39:40;;;;;;;2.58;1.40;;;;;;;3.45;100.00;98135.00;5008123;28;20047;-80
2023/01/16 08:53:05;;;;;;;5.55;1.58;;;;;;;3.60;100.00;98120.69;5024592;28;20088;-75
2023/01/16 08:55:31;;;;;;;6.35;1.70;;;;;;;3.59;100.00;98113.78;5024696;28;21582;-75
2023/01/16 08:57:59;;;;;;;5.10;1.17;;;;;;;3.66;100.00;98112.69;5023960;28;20029;-76
2023/01/16 09:00:26;;;;;;;4.55;2.00;;;;;;;3.69;100.00;98114.94;5024410;28;20052;-74
2023/01/16 09:02:53;;;;;;;4.47;1.38;;;;;;;3.65;100.00;98107.66;5024266;28;20030;-75
2023/01/16 09:05:19;;;;;;;4.18;1.55;;;;;;;3.73;100.00;98110.00;5024006;28;20021;-75
2023/01/16 09:07:44;;;;;;;3.25;1.38;;;;;;;3.77;100.00;98119.06;5024379;28;20143;-75
2023/01/16 09:10:11;;;;;;;2.47;1.30;;;;;;;3.77;100.00;98113.00;5023537;28;20416;-75
2023/01/16 09:15:20;;;;;;;2.85;1.10;;;;;;;3.79;100.00;98108.31;5023389;28;20067;-75
2023/01/16 09:17:46;;;;;;;1.38;1.08;;;;;;;3.78;100.00;98104.09;5023225;28;20148;-74
2023/01/16 09:20:11;;;;;;;5.50;1.33;;;;;;;3.81;100.00;98109.72;5005662;28;21116;-75
2023/01/16 09:22:37;;;;;;;5.07;1.30;;;;;;;3.80;100.00;98100.19;5023077;28;20102;-75
2023/01/16 09:25:02;;;;;;;5.55;1.40;;;;;;;3.81;100.00;98101.81;5023790;28;20123;-74
2023/01/16 09:27:28;;;;;;;3.20;1.45;;;;;;;3.78;100.00;98102.25;5023570;28;20037;-75
2023/01/16 09:29:53;;;;;;;2.45;1.10;;;;;;;3.80;100.00;98100.19;5005915;28;20042;-75
2023/01/16 09:32:20;;;;;;;2.08;0.95;;;;;;;3.81;100.00;98095.72;5022769;28;20083;-76
2023/01/16 09:34:45;;;;;;;1.08;0.98;;;;;;;3.77;100.00;98097.19;5023201;28;20034;-75
2023/01/16 09:37:11;;;;;;;1.08;0.93;;;;;;;3.78;100.00;98099.59;5005512;28;20045;-76
2023/01/16 09:39:36;;;;;;;1.75;0.90;;;;;;;3.73;100.00;98086.28;5023403;28;20034;-75
2023/01/16 09:45:16;;;;;;;2.47;1.05;;;;;;;3.67;100.00;98071.38;5023880;28;20408;-75
2023/01/16 09:47:45;;;;;;;1.50;0.95;;;;;;;3.69;100.00;98074.56;5023685;28;20032;-75
2023/01/16 09:50:13;;;;;;;1.35;1.15;;;;;;;3.70;100.00;98078.81;5023730;28;20025;-75
2023/01/16 09:58:36;;;;;;;4.68;1.60;;;;;;;3.77;100.00;98068.97;5027817;28;20044;-76
2023/01/16 10:01:24;;;;;;;2.70;1.50;;;;;;;3.80;100.00;98063.28;5027669;28;20060;-72
2023/01/16 10:03:50;;;;;;;2.63;1.30;;;;;;;3.81;100.00;98053.56;5026657;28;20069;-72
2023/01/16 10:06:37;;;;;;;1.35;1.00;;;;;;;3.80;100.00;98057.19;5027263;28;20053;-72
2023/01/16 10:09:02;;;;;;;2.22;1.25;;;;;;;3.82;100.00;98055.94;5027320;28;20097;-72
2023/01/16 10:11:30;;;;;;;1.63;0.82;;;;;;;3.87;100.00;98057.94;5026403;28;20117;-72
2023/01/16 10:14:14;;;;;;;1.63;1.15;;;;;;;3.90;100.00;98045.13;5026656;28;20029;-72
2023/01/16 10:16:43;;;;;;;1.80;1.52;;;;;;;3.94;100.00;98048.09;5026689;28;20060;-72
2023/01/16 10:19:39;;;;;;;1.17;1.10;;;;;;;3.98;100.00;98037.91;5026620;28;20047;-72
2023/01/16 10:22:35;;;;;;;1.45;1.27;;;;;;;4.02;100.00;98034.59;5026148;28;20682;-72
2023/01/16 10:25:28;;;;;;;2.38;1.17;;;;;;;4.05;100.00;98015.69;5008577;28;20035;-72
2023/01/16 10:28:20;;;;;;;0.70;0.70;;;;;;;4.07;100.00;98010.22;5026496;28;20093;-73
2023/01/16 10:30:54;;;;;;;2.28;0.90;;;;;;;4.10;100.00;98007.91;5026161;28;20405;-72
2023/01/16 10:33:29;;;;;;;2.22;1.40;;;;;;;4.15;100.00;98000.13;5025600;28;20168;-72
2023/01/16 10:35:58;;;;;;;2.70;1.08;;;;;;;4.20;100.00;97988.91;5026404;28;20017;-72
2023/01/16 10:38:44;;;;;;;1.10;1.00;;;;;;;4.40;100.00;97993.88;5026421;28;21295;-72
2023/01/16 10:49:34;;;;;;;0.85;0.80;;;;;;;4.71;100.00;97973.47;5011079;28;20059;-71
2023/01/16 10:52:03;;;;;;;1.25;1.15;;;;;;;4.65;100.00;97955.91;5026281;28;20029;-72
2023/01/16 10:54:28;;;;;;;1.60;0.90;;;;;;;4.73;100.00;97971.41;5026215;28;20485;-72
2023/01/16 10:56:57;;;;;;;1.02;0.93;;;;;;;4.70;100.00;97958.69;5026432;28;20140;-72
2023/01/16 10:59:23;;;;;;;1.45;0.88;;;;;;;4.74;100.00;97946.59;5026647;28;20064;-72
2023/01/16 11:01:50;;;;;;;1.10;1.00;;;;;;;4.74;100.00;97946.59;5025899;28;20491;-72
2023/01/16 11:04:19;;;;;;;1.98;1.83;;;;;;;4.75;100.00;97937.66;5008053;28;20393;-71
2023/01/16 11:06:45;;;;;;;0.80;0.80;;;;;;;4.74;100.00;97928.13;5031650;28;20922;-73
2023/01/16 11:09:14;;;;;;;0.88;0.88;;;;;;;4.77;100.00;97930.34;5031698;28;20029;-73
2023/01/16 11:20:02;;;;;;;0.68;0.68;;;;;;;4.70;100.00;97911.16;5031563;28;20578;-73
2023/01/16 11:22:28;;;;;;;1.52;1.00;;;;;;;4.66;100.00;97891.53;5031507;28;20037;-73
2023/01/16 11:24:57;;;;;;;1.45;0.90;;;;;;;4.67;100.00;97888.66;5013753;28;20388;-73
2023/01/16 11:27:26;;;;;;;0.80;0.80;;;;;;;4.69;100.00;97877.84;5031651;28;20033;-72
2023/01/16 11:29:54;;;;;;;2.55;0.90;;;;;;;4.73;100.00;97881.66;5031565;28;20022;-73
2023/01/16 11:32:24;;;;;;;1.88;0.80;;;;;;;4.78;100.00;97866.72;5031374;28;20061;-73
2023/01/16 11:34:53;;;;;;;1.58;0.57;;;;;;;4.83;100.00;97863.38;5031302;28;20021;-73
2023/01/16 11:37:20;;;;;;;0.82;0.70;;;;;;;4.88;100.00;97862.69;5031473;28;20026;-73
2023/01/16 11:39:49;;;;;;;1.15;0.70;;;;;;;4.88;100.00;97852.94;5031148;28;20036;-72
2023/01/16 11:47:52;;;;;;;3.10;1.30;;;;;;;4.95;100.00;97839.56;5031509;28;20051;-71
2023/01/16 11:50:36;;;;;;;0.80;0.80;;;;;;;5.02;100.00;97835.75;5013099;28;20409;-72
2023/01/16 11:53:02;;;;;;;0.75;0.75;;;;;;;5.07;100.00;97824.50;5030975;28;20120;-72
2023/01/16 11:55:42;;;;;;;0.80;0.80;;;;;;;5.17;100.00;97821.25;5027056;28;20575;-72
2023/01/16 11:58:35;;;;;;;0.80;0.80;;;;;;;5.32;100.00;97818.06;5025001;28;20521;-72
2023/01/16 12:01:11;;;;;;;0.80;0.80;;;;;;;5.42;100.00;97805.03;5025252;28;20049;-72
2023/01/16 12:03:43;;;;;;;0.70;0.70;;;;;;;5.46;100.00;97808.81;5025500;28;20120;-72
2023/01/16 12:06:19;;;;;;;3.67;1.30;;;;;;;5.45;100.00;97802.72;5025009;28;20117;-72
2023/01/16 12:09:05;;;;;;;2.15;1.17;;;;;;;5.43;100.00;97793.44;5024737;28;20028;-72
2023/01/16 12:11:52;;;;;;;1.85;1.33;;;;;;;5.38;100.00;97783.56;5024052;28;20037;-72
2023/01/16 12:14:24;;;;;;;1.85;1.17;;;;;;;5.33;100.00;97777.41;5024849;28;20029;-72
2023/01/16 12:16:55;;;;;;;2.65;1.20;;;;;;;5.26;100.00;97777.53;5024332;28;20033;-72
2023/01/16 12:20:12;;;;;;;2.58;1.08;;;;;;;5.26;100.00;97767.78;5023994;28;20053;-72
2023/01/16 12:23:02;;;;;;;1.45;1.20;;;;;;;5.19;100.00;97763.72;4934794;28;20467;-72
2023/01/16 12:25:27;;;;;;;2.15;1.15;;;;;;;5.12;100.00;97763.03;5023929;28;20029;-72
2023/01/16 12:28:23;;;;;;;1.23;1.13;;;;;;;5.11;100.00;97759.59;5023576;28;20044;-72
2023/01/16 12:30:58;;;;;;;2.03;1.40;;;;;;;5.10;100.00;97750.06;5023809;28;20025;-70
2023/01/16 12:33:38;;;;;;;2.90;1.38;;;;;;;5.09;100.00;97752.97;5024010;28;20033;-70
2023/01/16 12:36:13;;;;;;;1.60;1.50;;;;;;;5.07;100.00;97747.91;5023810;28;20017;-70
2023/01/16 12:38:55;;;;;;;1.58;1.48;;;;;;;5.02;100.00;97738.03;5024066;28;20021;-71
2023/01/16 12:44:32;;;;;;;2.63;1.60;;;;;;;5.08;100.00;97733.63;5024769;28;20083;-72
2023/01/16 12:47:17;;;;;;;6.70;1.55;;;;;;;5.11;100.00;97730.56;5023439;28;20021;-72